Time;durP1;ratioP1;P1;durP2;ratioP2;P2;SDS_P1;SDS_P2;PMS_P1;PMS_P2;Temp;Humidity;BMP_temperature;BMP_pressure;BME280_temperature;BME280_humidity;BME280_pressure;Samples;Min_cycle;Max_cycle;Signal;HPM_P1;HPM_P2
2021/12/04 00:02:12;;;;;;;72.13;30.77;;;-0.40;99.90;;;;;;10091019;29;20045;-86
2021/12/04 00:07:13;;;;;;;47.63;17.63;;;-0.40;99.90;;;;;;10092284;29;20040;-87
2021/12/04 00:12:14;;;;;;;49.40;20.17;;;-0.40;99.90;;;;;;10090015;29;20036;-87
2021/12/04 00:17:15;;;;;;;47.37;21.50;;;-0.50;99.90;;;;;;10090728;29;20450;-87
2021/12/04 00:22:16;;;;;;;41.80;18.53;;;-0.50;99.90;;;;;;10089350;29;20029;-87
2021/12/04 00:27:16;;;;;;;35.90;18.20;;;-0.60;99.90;;;;;;10090796;29;20552;-87
2021/12/04 00:37:47;;;;;;;33.43;14.43;;;-0.60;99.90;;;;;;10074459;29;20397;-85
2021/12/04 00:53:26;;;;;;;30.67;14.33;;;-0.60;99.90;;;;;;10090642;29;20462;-87
2021/12/04 00:58:27;;;;;;;30.73;13.77;;;-0.60;99.90;;;;;;10090034;29;20048;-86
2021/12/04 01:03:28;;;;;;;42.00;16.77;;;-0.70;99.90;;;;;;10091057;29;20055;-87
2021/12/04 01:08:28;;;;;;;20.60;11.20;;;-0.80;99.90;;;;;;10090149;29;20108;-87
2021/12/04 01:13:38;;;;;;;21.33;9.13;;;-0.80;99.90;;;;;;10090136;29;20037;-87
2021/12/04 01:18:39;;;;;;;32.83;14.00;;;-0.80;99.90;;;;;;10089970;29;20587;-86
2021/12/04 01:23:40;;;;;;;22.50;10.33;;;-0.80;99.90;;;;;;10090108;29;20048;-88
2021/12/04 01:28:41;;;;;;;22.97;11.97;;;-0.80;99.90;;;;;;10090578;29;20470;-87
2021/12/04 01:33:41;;;;;;;20.17;10.73;;;-0.80;99.90;;;;;;10095078;29;20418;-87
2021/12/04 01:38:42;;;;;;;28.40;11.90;;;-0.90;99.90;;;;;;10096414;29;20485;-87
2021/12/04 01:43:43;;;;;;;21.33;10.27;;;-0.90;99.90;;;;;;10095725;29;20025;-88
2021/12/04 01:48:44;;;;;;;22.57;10.37;;;-1.00;99.90;;;;;;10096191;29;20040;-87
2021/12/04 01:53:44;;;;;;;21.63;10.23;;;-1.00;99.90;;;;;;10096029;29;20671;-86
2021/12/04 01:58:45;;;;;;;22.60;10.80;;;-1.00;99.90;;;;;;10096143;29;20394;-86
2021/12/04 02:03:46;;;;;;;27.60;10.80;;;-1.00;99.90;;;;;;10095935;29;20052;-86
2021/12/04 02:08:46;;;;;;;35.30;14.67;;;-1.00;99.90;;;;;;10096189;29;20021;-85
2021/12/04 02:13:47;;;;;;;38.20;16.40;;;-1.00;99.90;;;;;;10096140;29;20048;-86
2021/12/04 02:18:48;;;;;;;37.07;15.00;;;-1.10;99.90;;;;;;10095285;29;20041;-86
2021/12/04 02:23:49;;;;;;;28.87;13.80;;;-1.10;99.90;;;;;;10095600;29;20044;-87
2021/12/04 02:28:50;;;;;;;45.13;18.40;;;-1.10;99.90;;;;;;10095675;29;20017;-87
2021/12/04 02:33:52;;;;;;;27.23;12.73;;;-1.10;99.90;;;;;;10091081;29;20075;-87
2021/12/04 02:38:52;;;;;;;29.73;11.63;;;-1.10;99.90;;;;;;10095446;29;20061;-86
2021/12/04 02:43:53;;;;;;;20.43;9.97;;;-1.10;99.90;;;;;;10094498;29;20063;-87
2021/12/04 02:48:54;;;;;;;24.23;11.00;;;-1.10;99.90;;;;;;10092879;29;20017;-87
2021/12/04 02:53:54;;;;;;;21.13;9.93;;;-1.10;99.90;;;;;;10094935;29;20026;-87
2021/12/04 02:59:01;;;;;;;23.23;10.17;;;-1.20;99.90;;;;;;10094678;29;20413;-86
2021/12/04 03:04:06;;;;;;;22.10;10.50;;;-1.20;99.90;;;;;;10093892;29;20039;-87
2021/12/04 03:09:08;;;;;;;23.27;9.52;;;-1.30;99.90;;;;;;10093959;29;20079;-87
2021/12/04 03:14:09;;;;;;;26.57;11.23;;;-1.40;99.90;;;;;;10093689;29;20039;-87
2021/12/04 03:19:10;;;;;;;23.33;10.00;;;-1.40;99.90;;;;;;10092828;29;20051;-87
2021/12/04 03:24:13;;;;;;;22.60;10.23;;;-1.40;99.90;;;;;;10091854;29;20029;-87
2021/12/04 03:29:18;;;;;;;19.03;8.37;;;-1.40;99.90;;;;;;10091770;29;20021;-87
2021/12/04 03:44:58;;;;;;;19.77;8.93;;;-1.50;99.90;;;;;;10093583;29;20041;-87
2021/12/04 03:49:58;;;;;;;22.50;11.13;;;-1.50;99.90;;;;;;10091478;29;20032;-87
2021/12/04 03:54:59;;;;;;;29.33;9.97;;;-1.50;99.90;;;;;;10090164;29;20072;-86
2021/12/04 04:00:00;;;;;;;27.63;11.27;;;-1.50;99.90;;;;;;10092013;29;20060;-87
2021/12/04 04:05:01;;;;;;;31.40;11.43;;;-1.50;99.90;;;;;;10092290;29;20377;-87
2021/12/04 04:10:02;;;;;;;35.13;12.13;;;-1.50;99.90;;;;;;10091984;29;20040;-87
2021/12/04 04:15:03;;;;;;;33.40;11.93;;;-1.50;99.90;;;;;;10090916;29;20029;-87
2021/12/04 04:20:04;;;;;;;31.37;10.43;;;-1.60;99.90;;;;;;10091899;29;20037;-87
2021/12/04 04:25:07;;;;;;;34.47;12.33;;;-1.60;99.90;;;;;;10089443;29;20056;-86
2021/12/04 04:30:14;;;;;;;30.17;11.77;;;-1.50;99.90;;;;;;10090033;29;20584;-86
2021/12/04 04:35:17;;;;;;;34.60;12.73;;;-1.50;99.90;;;;;;10090454;29;20025;-86
2021/12/04 05:01:58;;;;;;;54.93;18.00;;;-1.60;99.90;;;;;;10090080;29;20033;-87
2021/12/04 05:17:16;;;;;;;18.43;9.23;;;-1.60;99.90;;;;;;10089392;29;20037;-87
2021/12/04 05:22:16;;;;;;;22.40;10.70;;;-1.70;99.90;;;;;;10090280;29;20021;-88
2021/12/04 05:27:17;;;;;;;25.33;11.13;;;-1.90;99.90;;;;;;10090623;29;20033;-88
2021/12/04 05:32:18;;;;;;;26.53;13.23;;;-1.90;99.90;;;;;;10088657;29;20029;-85
2021/12/04 05:37:18;;;;;;;33.60;14.10;;;-2.00;99.90;;;;;;10090566;29;20442;-85
2021/12/04 05:42:19;;;;;;;32.17;14.50;;;-2.00;99.90;;;;;;10085841;29;20066;-88
2021/12/04 05:47:24;;;;;;;28.73;14.13;;;-2.00;99.90;;;;;;10082289;29;20037;-88
2021/12/04 05:52:52;;;;;;;41.78;19.40;;;-2.00;99.90;;;;;;10083363;29;20117;-89
2021/12/04 05:57:54;;;;;;;51.97;22.00;;;-2.10;99.90;;;;;;10083983;29;20077;-88
2021/12/04 06:02:54;;;;;;;53.97;20.47;;;-2.00;99.90;;;;;;10089253;29;20076;-88
2021/12/04 06:07:55;;;;;;;41.13;17.23;;;-1.90;99.90;;;;;;10089415;29;20036;-89
2021/12/04 06:12:56;;;;;;;36.20;16.27;;;-2.00;99.90;;;;;;10088262;29;20426;-87
2021/12/04 06:17:57;;;;;;;44.83;19.00;;;-2.10;99.90;;;;;;10090350;29;20359;-87
2021/12/04 06:22:57;;;;;;;54.50;23.33;;;-2.10;99.90;;;;;;10101459;29;20025;-88
2021/12/04 06:27:58;;;;;;;35.03;16.93;;;-2.10;99.90;;;;;;10086168;29;20041;-87
2021/12/04 06:32:59;;;;;;;43.67;22.37;;;-2.00;99.90;;;;;;10096264;29;20033;-88
2021/12/04 06:38:00;;;;;;;35.33;18.43;;;-1.90;99.90;;;;;;10094043;29;20085;-86
2021/12/04 06:43:01;;;;;;;39.27;19.60;;;-1.90;99.90;;;;;;10096983;29;20393;-87
2021/12/04 06:48:09;;;;;;;61.93;32.73;;;-1.80;99.90;;;;;;10094021;29;20024;-87
2021/12/04 06:58:15;;;;;;;131.70;73.17;;;-1.70;99.90;;;;;;10093896;29;20738;-87
2021/12/04 07:03:16;;;;;;;175.93;70.63;;;-1.60;99.90;;;;;;10094515;29;20125;-89
2021/12/04 07:08:17;;;;;;;111.33;79.00;;;-1.60;99.90;;;;;;10093680;29;20120;-88
2021/12/04 07:13:18;;;;;;;95.53;51.80;;;-1.50;99.90;;;;;;10077654;29;20402;-90
2021/12/04 07:18:18;;;;;;;125.60;86.07;;;-1.40;99.90;;;;;;10077651;29;20031;-88
2021/12/04 07:23:19;;;;;;;118.20;54.07;;;-1.40;99.90;;;;;;10092442;29;20029;-87
2021/12/04 07:28:20;;;;;;;220.47;84.63;;;-1.30;99.90;;;;;;10077421;29;20041;-88
2021/12/04 07:33:21;;;;;;;162.73;72.20;;;-1.20;99.90;;;;;;10092191;29;20067;-86
2021/12/04 07:38:21;;;;;;;199.73;72.50;;;-1.10;99.90;;;;;;10093801;29;20476;-86
2021/12/04 07:43:22;;;;;;;184.73;71.53;;;-1.10;99.90;;;;;;10084127;29;20117;-88
2021/12/04 07:48:23;;;;;;;42.57;20.87;;;-1.00;99.90;;;;;;10092145;29;20039;-87
2021/12/04 07:53:23;;;;;;;32.47;15.07;;;-0.80;99.90;;;;;;10085967;29;20028;-87
2021/12/04 07:58:24;;;;;;;34.17;13.97;;;-0.60;99.90;;;;;;10089056;29;20045;-85
2021/12/04 08:03:25;;;;;;;28.27;14.53;;;-0.50;99.90;;;;;;10092041;29;20052;-86
2021/12/04 08:08:26;;;;;;;41.77;18.47;;;-0.40;99.90;;;;;;10099239;29;20401;-86
2021/12/04 08:13:28;;;;;;;40.97;20.23;;;-0.30;99.90;;;;;;10095048;29;20037;-86
2021/12/04 08:18:29;;;;;;;50.67;25.17;;;-0.20;99.90;;;;;;10084863;29;20036;-87
2021/12/04 08:23:29;;;;;;;58.70;23.60;;;-0.10;99.90;;;;;;10087376;29;20036;-87
2021/12/04 08:28:30;;;;;;;58.53;23.80;;;0.30;99.90;;;;;;10087416;29;20470;-87
2021/12/04 08:33:31;;;;;;;37.07;16.93;;;0.60;99.90;;;;;;10077020;29;20084;-87
2021/12/04 08:38:33;;;;;;;474.07;233.03;;;0.80;99.90;;;;;;10090944;29;20017;-87
2021/12/04 08:43:33;;;;;;;166.30;62.57;;;1.10;99.90;;;;;;10084650;29;20040;-86
2021/12/04 08:48:34;;;;;;;91.93;29.30;;;1.50;99.90;;;;;;10074439;29;20675;-87
2021/12/04 08:53:36;;;;;;;83.80;30.87;;;1.90;99.90;;;;;;10072786;29;20027;-87
2021/12/04 08:58:42;;;;;;;47.10;15.77;;;2.00;99.90;;;;;;10083008;29;20382;-90
2021/12/04 09:03:46;;;;;;;;;;;2.10;99.90;;;;;;10079524;29;20047;-84
2021/12/04 09:08:47;;;;;;;29.07;12.67;;;2.00;98.70;;;;;;10078657;29;19980;-86
2021/12/04 09:13:49;;;;;;;48.33;19.10;;;2.00;99.10;;;;;;10074013;29;20045;-86
2021/12/04 09:18:55;;;;;;;41.07;16.70;;;2.00;99.30;;;;;;10088675;29;20029;-89
2021/12/04 10:00:57;;;;;;;22.33;10.47;;;2.30;98.40;;;;;;10094137;29;20040;-86
2021/12/04 10:11:44;;;;;;;19.53;9.23;;;2.70;98.10;;;;;;10092842;29;20373;-86
2021/12/04 10:32:55;;;;;;;19.90;8.63;;;4.10;94.20;;;;;;10090727;29;20386;-86
2021/12/04 10:38:04;;;;;;;17.70;8.93;;;4.30;93.30;;;;;;10091422;29;20389;-86
2021/12/04 10:43:11;;;;;;;24.43;11.47;;;4.60;92.70;;;;;;10092795;29;20032;-85
2021/12/04 10:48:18;;;;;;;53.03;21.57;;;4.80;92.30;;;;;;10088076;29;20103;-85
2021/12/04 10:53:24;;;;;;;55.63;21.97;;;4.90;91.60;;;;;;10091147;29;20044;-86
2021/12/04 11:41:36;;;;;;;22.27;11.57;;;4.40;88.20;;;;;;10086289;29;20064;-85
2021/12/04 11:46:45;;;;;;;21.67;10.53;;;4.20;88.90;;;;;;10087593;29;20047;-86
2021/12/04 11:51:58;;;;;;;24.07;12.23;;;4.10;89.40;;;;;;10087337;29;20029;-84
2021/12/04 11:57:07;;;;;;;74.43;31.57;;;4.00;88.80;;;;;;10083003;29;20073;-85
2021/12/04 12:02:16;;;;;;;42.53;15.33;;;4.20;90.10;;;;;;10086066;29;20037;-88
2021/12/04 12:07:21;;;;;;;88.13;36.63;;;4.20;89.00;;;;;;10085749;29;20047;-84
2021/12/04 12:12:33;;;;;;;140.70;48.13;;;4.10;89.50;;;;;;10087015;29;20417;-84
2021/12/04 12:17:37;;;;;;;132.27;43.37;;;4.40;90.00;;;;;;10083635;29;20025;-86
2021/12/04 12:33:45;;;;;;;123.07;41.87;;;5.00;89.10;;;;;;10088701;29;20029;-89
2021/12/04 12:38:59;;;;;;;158.80;54.97;;;5.10;88.10;;;;;;10082625;29;20726;-89
2021/12/04 12:44:22;;;;;;;185.30;63.47;;;4.90;87.60;;;;;;10098923;29;20037;-90
2021/12/04 12:49:34;;;;;;;105.70;35.43;;;4.70;87.90;;;;;;10083133;29;20085;-89
2021/12/04 12:54:40;;;;;;;51.80;17.63;;;4.60;88.80;;;;;;10082252;29;20036;-85
2021/12/04 12:59:58;;;;;;;89.00;32.10;;;4.70;89.20;;;;;;10053242;29;20057;-90
2021/12/04 13:15:48;;;;;;;212.47;82.70;;;4.50;87.80;;;;;;10047518;29;20072;-87
2021/12/04 13:20:58;;;;;;;82.00;29.57;;;4.30;88.30;;;;;;10045895;29;20112;-88
2021/12/04 13:26:11;;;;;;;95.60;36.23;;;4.10;88.00;;;;;;10043185;29;20069;-86
2021/12/04 13:31:12;;;;;;;87.60;31.40;;;4.00;88.50;;;;;;10047619;29;20481;-86
2021/12/04 13:36:19;;;;;;;84.67;33.30;;;3.90;88.60;;;;;;10052192;29;20108;-86
2021/12/04 13:41:19;;;;;;;76.97;29.37;;;3.80;87.90;;;;;;10051329;29;20053;-87
2021/12/04 13:46:21;;;;;;;67.93;26.10;;;3.70;88.30;;;;;;10051771;29;20052;-85
2021/12/04 13:51:21;;;;;;;52.90;21.00;;;3.70;88.70;;;;;;10053405;29;20014;-85
2021/12/04 13:56:22;;;;;;;102.30;40.67;;;3.70;88.80;;;;;;10065839;29;20041;-87
2021/12/04 14:01:25;;;;;;;108.20;44.83;;;3.70;88.90;;;;;;10134005;29;20032;-87
2021/12/04 14:06:26;;;;;;;188.43;68.30;;;3.60;88.10;;;;;;10131777;29;20087;-86
2021/12/04 14:11:40;;;;;;;158.50;59.73;;;3.50;88.70;;;;;;10099816;29;20564;-86
2021/12/04 14:16:44;;;;;;;85.47;33.50;;;3.50;88.80;;;;;;10105970;29;20108;-89
2021/12/04 14:22:03;;;;;;;97.17;41.60;;;3.40;89.20;;;;;;10111964;29;20037;-88
2021/12/04 14:27:05;;;;;;;52.43;21.87;;;3.40;88.30;;;;;;10112046;29;20430;-87
2021/12/04 14:32:06;;;;;;;101.03;46.30;;;3.40;89.50;;;;;;10132551;29;20024;-87
2021/12/04 14:37:16;;;;;;;43.77;19.27;;;3.30;89.40;;;;;;10131784;29;20433;-87
2021/12/04 14:42:20;;;;;;;70.47;28.10;;;3.20;89.40;;;;;;10117019;29;20016;-86
2021/12/04 14:47:22;;;;;;;62.00;25.00;;;3.10;90.30;;;;;;10114518;29;20040;-85
2021/12/04 14:52:25;;;;;;;68.37;25.80;;;2.90;91.60;;;;;;10105103;29;20240;-84
2021/12/04 14:57:28;;;;;;;139.33;50.43;;;2.70;92.70;;;;;;10133481;29;20044;-85
2021/12/04 15:02:29;;;;;;;154.43;56.07;;;2.50;94.00;;;;;;10132476;29;20389;-86
2021/12/04 15:07:34;;;;;;;124.00;50.00;;;2.30;95.50;;;;;;10116528;29;20043;-88
2021/12/04 15:12:35;;;;;;;69.47;30.33;;;2.10;96.10;;;;;;10122611;29;20025;-89
2021/12/04 15:17:39;;;;;;;173.90;76.97;;;2.10;97.30;;;;;;10115395;29;20066;-86
2021/12/04 15:22:44;;;;;;;331.57;134.80;;;2.10;97.40;;;;;;10124412;29;20020;-87
2021/12/04 15:27:46;;;;;;;233.47;102.53;;;2.00;99.00;;;;;;10113366;29;20040;-87
2021/12/04 15:32:47;;;;;;;129.90;55.53;;;2.00;99.90;;;;;;10115072;29;20025;-87
2021/12/04 15:37:51;;;;;;;173.47;71.67;;;2.00;99.90;;;;;;10127928;29;20032;-87
2021/12/04 15:43:20;;;;;;;227.50;90.50;;;2.00;99.90;;;;;;10131978;29;20059;-88
2021/12/04 15:53:30;;;;;;;85.85;31.00;;;2.00;99.90;;;;;;10129510;29;20047;-88
2021/12/04 15:58:33;;;;;;;420.03;124.30;;;1.90;99.90;;;;;;10108849;29;20048;-88
2021/12/04 16:03:39;;;;;;;164.17;50.43;;;2.00;99.90;;;;;;10120400;29;20116;-89
2021/12/04 16:08:42;;;;;;;334.10;97.23;;;1.90;99.90;;;;;;10118166;29;20059;-89
2021/12/04 16:13:49;;;;;;;282.53;82.97;;;1.90;99.90;;;;;;10112666;29;20047;-89
2021/12/04 16:18:52;;;;;;;143.67;44.83;;;1.90;99.90;;;;;;10113291;29;20104;-89
2021/12/04 16:23:54;;;;;;;137.70;46.33;;;1.90;99.90;;;;;;10141053;29;20032;-89
2021/12/04 16:29:03;;;;;;;178.73;79.13;;;1.90;99.90;;;;;;10118217;29;20592;-87
2021/12/04 16:35:05;;;;;;;118.50;47.73;;;1.90;99.90;;;;;;10119445;29;20016;-88
2021/12/04 16:39:24;;;;;;;150.17;57.23;;;1.90;99.90;;;;;;10127259;29;20028;-88
2021/12/04 16:44:26;;;;;;;154.70;59.27;;;1.90;99.90;;;;;;10140306;29;20457;-89
2021/12/04 16:49:28;;;;;;;148.23;59.57;;;1.90;99.90;;;;;;10096937;29;20028;-87
2021/12/04 17:00:08;;;;;;;170.17;83.13;;;1.90;99.90;;;;;;9977181;29;20063;-87
2021/12/04 17:05:09;;;;;;;127.17;54.97;;;1.80;99.90;;;;;;10094920;29;20139;-88
2021/12/04 17:10:12;;;;;;;160.30;77.60;;;1.70;99.90;;;;;;10128001;29;20025;-89
2021/12/04 17:15:13;;;;;;;137.23;58.07;;;1.70;99.90;;;;;;10124795;29;20473;-88
2021/12/04 17:20:18;;;;;;;173.33;68.07;;;1.60;99.90;;;;;;10110693;29;20035;-88
2021/12/04 17:25:20;;;;;;;140.90;56.72;;;1.60;99.90;;;;;;10110398;29;20037;-89
2021/12/04 17:30:21;;;;;;;134.33;53.83;;;1.60;99.90;;;;;;10122535;29;20119;-89
2021/12/04 17:35:22;;;;;;;155.57;67.43;;;1.60;99.90;;;;;;10128611;29;20032;-87
2021/12/04 17:40:23;;;;;;;165.10;81.40;;;1.60;99.90;;;;;;10108581;29;20025;-88
2021/12/04 17:45:25;;;;;;;272.30;119.27;;;1.50;99.90;;;;;;10108288;29;20037;-89
2021/12/04 17:50:27;;;;;;;150.40;65.03;;;1.50;99.90;;;;;;10128988;29;20095;-88
2021/12/04 17:55:28;;;;;;;98.07;39.73;;;1.40;99.90;;;;;;10124814;29;20017;-90
2021/12/04 18:00:43;;;;;;;106.27;47.63;;;1.20;99.90;;;;;;10122406;29;20516;-90
2021/12/04 18:05:45;;;;;;;104.73;47.73;;;1.00;99.90;;;;;;10103535;29;20053;-86
2021/12/04 18:10:50;;;;;;;103.33;47.77;;;0.90;99.90;;;;;;10125180;29;20064;-89
2021/12/04 18:16:00;;;;;;;115.33;55.20;;;0.90;99.90;;;;;;10130188;29;20025;-87
2021/12/04 18:21:02;;;;;;;101.17;49.47;;;0.90;99.90;;;;;;10134733;29;20020;-89
2021/12/04 18:26:05;;;;;;;90.13;43.97;;;1.00;99.90;;;;;;10115899;29;20040;-89
2021/12/04 18:31:09;;;;;;;94.03;46.70;;;1.00;99.90;;;;;;10132613;29;20072;-90
2021/12/04 18:36:09;;;;;;;99.03;49.13;;;1.10;99.90;;;;;;10117985;29;20065;-88
2021/12/04 18:41:13;;;;;;;119.00;56.17;;;1.20;99.90;;;;;;10115229;29;20070;-88
2021/12/04 18:46:14;;;;;;;185.43;84.63;;;1.20;99.90;;;;;;10123522;29;20044;-89
2021/12/04 18:51:15;;;;;;;126.97;58.20;;;1.30;99.90;;;;;;10131638;29;20044;-89
2021/12/04 18:56:16;;;;;;;106.63;49.47;;;1.40;99.90;;;;;;10132047;29;20405;-89
2021/12/04 19:01:18;;;;;;;93.67;43.33;;;1.40;99.90;;;;;;10125726;29;20064;-90
2021/12/04 19:06:19;;;;;;;129.10;56.73;;;1.40;99.90;;;;;;10115710;29;20040;-89
2021/12/04 19:11:22;;;;;;;141.23;62.00;;;1.50;99.90;;;;;;10116228;29;20392;-87
2021/12/04 19:16:23;;;;;;;206.47;85.37;;;1.60;99.90;;;;;;10124868;29;20472;-88
2021/12/04 19:21:26;;;;;;;154.50;66.73;;;1.60;99.90;;;;;;10115494;29;20115;-86
2021/12/04 19:26:28;;;;;;;153.87;62.97;;;1.60;99.90;;;;;;10128881;29;20104;-86
2021/12/04 19:31:36;;;;;;;223.87;81.53;;;1.60;99.90;;;;;;10127694;29;20039;-86
2021/12/04 19:52:18;;;;;;;80.50;34.30;;;1.60;99.90;;;;;;10130661;29;20071;-88
2021/12/04 19:57:23;;;;;;;128.73;47.03;;;1.60;99.90;;;;;;10115006;29;20541;-86
2021/12/04 20:07:53;;;;;;;69.57;29.87;;;1.60;99.90;;;;;;10118774;29;20135;-86
2021/12/04 20:18:15;;;;;;;66.40;28.50;;;1.60;99.90;;;;;;10129898;29;20477;-85
2021/12/04 20:23:23;;;;;;;75.43;33.43;;;1.70;99.90;;;;;;10129190;29;20036;-88
2021/12/04 20:28:43;;;;;;;101.20;44.50;;;1.70;99.90;;;;;;10126812;29;20021;-89
2021/12/04 20:33:57;;;;;;;184.93;79.73;;;1.80;99.90;;;;;;10112840;29;20028;-87
2021/12/04 21:12:01;;;;;;;92.70;44.13;;;2.00;99.90;;;;;;10128123;29;20029;-87
2021/12/04 21:53:48;;;;;;;66.70;29.63;;;2.20;99.90;;;;;;10135295;29;20021;-86
2021/12/04 22:14:13;;;;;;;48.63;23.10;;;2.30;99.90;;;;;;10133782;29;20044;-87
2021/12/04 23:01:31;;;;;;;62.00;30.43;;;2.40;99.90;;;;;;10131436;29;20036;-86
2021/12/04 23:12:17;;;;;;;66.93;30.33;;;2.40;99.90;;;;;;10130115;29;20044;-86
2021/12/04 23:33:49;;;;;;;227.03;82.90;;;2.40;99.90;;;;;;10114165;29;20032;-85
